Time;durP1;ratioP1;P1;durP2;ratioP2;P2;SDS_P1;SDS_P2;PMS_P1;PMS_P2;Temp;Humidity;BMP_temperature;BMP_pressure;BME280_temperature;BME280_humidity;BME280_pressure;Samples;Min_cycle;Max_cycle;Signal;HPM_P1;HPM_P2
2021/12/12 00:02:21;;;;;;;12.23;6.38;;;3.30;90.90;;;;;;5007240;28;20279;-79
2021/12/12 00:04:50;;;;;;;11.50;7.50;;;3.20;90.60;;;;;;5008103;28;20304;-80
2021/12/12 00:07:21;;;;;;;10.40;7.25;;;3.20;90.80;;;;;;5005697;28;20212;-78
2021/12/12 00:09:52;;;;;;;14.20;5.57;;;3.20;90.40;;;;;;5004674;28;20189;-79
2021/12/12 00:12:25;;;;;;;9.05;6.30;;;3.20;90.50;;;;;;5002442;28;20204;-79
2021/12/12 00:14:54;;;;;;;9.25;6.50;;;3.10;90.00;;;;;;5004360;28;20193;-78
2021/12/12 00:17:23;;;;;;;13.30;6.70;;;3.10;90.10;;;;;;5005506;28;20232;-79
2021/12/12 00:19:50;;;;;;;10.48;5.95;;;3.00;90.10;;;;;;5008134;28;20271;-80
2021/12/12 00:22:19;;;;;;;10.18;6.03;;;3.00;90.10;;;;;;5006771;28;20256;-77
2021/12/12 00:24:47;;;;;;;9.18;5.47;;;2.90;90.10;;;;;;5005701;28;20212;-78
2021/12/12 00:27:14;;;;;;;14.77;5.63;;;2.90;89.80;;;;;;5006031;28;20267;-78
2021/12/12 00:29:42;;;;;;;6.88;4.93;;;2.90;90.20;;;;;;5004551;28;20240;-80
2021/12/12 00:32:13;;;;;;;8.68;5.30;;;2.90;89.90;;;;;;5003390;28;20223;-79
2021/12/12 00:34:54;;;;;;;11.35;6.38;;;2.90;89.50;;;;;;5002547;28;20239;-80
2021/12/12 00:37:22;;;;;;;7.65;5.85;;;2.90;89.30;;;;;;5003009;28;20232;-79
2021/12/12 00:39:56;;;;;;;9.05;6.15;;;2.80;89.00;;;;;;5001562;28;20251;-78
2021/12/12 00:42:26;;;;;;;10.93;5.63;;;2.80;89.20;;;;;;5004652;28;20223;-78
2021/12/12 00:44:56;;;;;;;8.20;5.65;;;2.80;89.10;;;;;;5001418;28;20661;-78
2021/12/12 00:47:23;;;;;;;7.30;5.35;;;2.80;88.80;;;;;;4999845;28;20288;-79
2021/12/12 00:49:53;;;;;;;13.50;5.22;;;2.80;89.30;;;;;;4999780;28;20209;-77
2021/12/12 00:52:21;;;;;;;9.02;5.30;;;2.90;89.80;;;;;;4998548;28;20208;-78
2021/12/12 00:54:50;;;;;;;8.43;5.65;;;2.90;89.50;;;;;;5005243;28;20212;-79
2021/12/12 00:57:20;;;;;;;8.88;5.43;;;3.10;89.20;;;;;;4998401;28;20746;-77
2021/12/12 00:59:47;;;;;;;8.23;5.70;;;3.10;88.50;;;;;;4995385;28;20307;-78
2021/12/12 01:02:17;;;;;;;7.80;4.65;;;3.20;87.10;;;;;;4996403;28;20200;-80
2021/12/12 01:04:48;;;;;;;8.25;4.65;;;3.30;85.60;;;;;;4994756;28;20554;-80
2021/12/12 01:07:20;;;;;;;8.05;4.75;;;3.30;84.50;;;;;;5004064;28;20255;-79
2021/12/12 01:09:50;;;;;;;14.98;5.20;;;3.40;83.00;;;;;;5001522;28;20197;-76
2021/12/12 01:12:21;;;;;;;9.85;4.95;;;3.40;81.40;;;;;;5003001;28;20209;-79
2021/12/12 01:14:52;;;;;;;6.60;5.22;;;3.50;80.80;;;;;;5004324;28;20276;-78
2021/12/12 01:17:22;;;;;;;8.35;4.38;;;3.60;80.20;;;;;;4996516;28;20225;-78
2021/12/12 01:19:57;;;;;;;6.35;3.95;;;3.60;80.20;;;;;;4998271;28;20268;-78
2021/12/12 01:22:30;;;;;;;6.78;4.30;;;3.60;79.30;;;;;;4994095;28;20235;-78
2021/12/12 01:25:05;;;;;;;6.45;4.50;;;3.60;78.20;;;;;;4994334;28;20212;-79
2021/12/12 01:27:32;;;;;;;5.95;4.65;;;3.70;77.60;;;;;;4993742;28;20255;-78
2021/12/12 01:29:59;;;;;;;7.53;4.80;;;3.70;76.80;;;;;;4994565;28;20291;-79
2021/12/12 01:32:30;;;;;;;9.00;4.43;;;3.70;76.10;;;;;;4996143;28;20209;-81
2021/12/12 01:34:58;;;;;;;7.32;4.45;;;3.70;76.00;;;;;;4998040;28;20216;-78
2021/12/12 01:37:39;;;;;;;11.63;6.07;;;3.70;75.60;;;;;;4996246;28;20696;-78
2021/12/12 01:40:13;;;;;;;6.82;4.85;;;3.80;74.90;;;;;;4996784;28;20224;-77
2021/12/12 01:42:44;;;;;;;7.25;4.25;;;3.70;74.60;;;;;;4995432;28;20641;-77
2021/12/12 01:45:14;;;;;;;5.22;3.97;;;3.70;74.60;;;;;;4996162;28;20522;-77
2021/12/12 01:47:47;;;;;;;6.72;4.25;;;3.60;74.50;;;;;;4994962;28;20251;-78
2021/12/12 01:50:19;;;;;;;5.20;3.80;;;3.60;74.20;;;;;;4994998;28;20200;-78
2021/12/12 01:52:49;;;;;;;5.28;3.92;;;3.60;74.80;;;;;;4995077;28;20620;-79
2021/12/12 01:55:23;;;;;;;9.70;5.60;;;3.60;75.00;;;;;;4997203;28;20683;-77
2021/12/12 01:57:53;;;;;;;22.23;9.43;;;3.60;74.90;;;;;;5000369;28;20224;-81
2021/12/12 02:00:30;;;;;;;10.70;6.30;;;3.70;75.50;;;;;;5000170;28;20592;-78
2021/12/12 02:02:58;;;;;;;8.30;4.68;;;3.70;75.30;;;;;;4999970;28;20254;-78
2021/12/12 02:05:28;;;;;;;5.55;4.00;;;3.70;74.80;;;;;;4999850;28;20270;-80
2021/12/12 02:08:00;;;;;;;7.95;4.13;;;3.70;74.60;;;;;;4999234;28;20236;-80
2021/12/12 02:10:35;;;;;;;5.25;3.80;;;3.70;74.70;;;;;;4999042;28;20869;-81
2021/12/12 02:13:05;;;;;;;8.00;4.20;;;3.70;74.70;;;;;;4999164;28;20232;-80
2021/12/12 02:15:37;;;;;;;8.80;4.13;;;3.70;74.50;;;;;;4998406;28;20278;-77
2021/12/12 02:18:08;;;;;;;5.70;3.90;;;3.70;74.10;;;;;;4998182;28;20204;-79
2021/12/12 02:20:43;;;;;;;7.15;4.25;;;3.70;74.20;;;;;;4998742;28;20208;-79
2021/12/12 02:23:17;;;;;;;5.22;4.47;;;3.60;73.50;;;;;;5001492;28;20219;-80
2021/12/12 02:36:51;;;;;;;9.27;5.18;;;3.50;75.90;;;;;;4997661;28;20227;-78
2021/12/12 02:39:19;;;;;;;6.28;4.70;;;3.50;75.90;;;;;;4997575;28;20228;-79
2021/12/12 02:41:49;;;;;;;6.18;3.10;;;3.50;75.30;;;;;;4996641;28;20219;-78
2021/12/12 02:44:21;;;;;;;9.68;3.80;;;3.50;75.80;;;;;;4996945;28;20205;-77
2021/12/12 02:46:49;;;;;;;6.15;3.80;;;3.50;75.80;;;;;;4997447;28;20262;-76
2021/12/12 02:49:36;;;;;;;5.63;3.63;;;3.70;75.40;;;;;;4997424;28;20569;-77
2021/12/12 02:52:05;;;;;;;5.55;4.15;;;3.70;74.60;;;;;;5002518;28;20243;-77
2021/12/12 02:54:33;;;;;;;4.45;3.67;;;3.70;73.90;;;;;;5012418;28;20276;-78
2021/12/12 02:57:03;;;;;;;5.88;4.20;;;3.70;73.60;;;;;;5009134;28;20618;-77
2021/12/12 02:59:31;;;;;;;5.70;4.07;;;3.70;73.30;;;;;;4997445;28;20287;-77
2021/12/12 03:02:01;;;;;;;6.63;3.40;;;3.70;73.00;;;;;;4996721;28;20204;-78
2021/12/12 03:04:30;;;;;;;11.38;4.75;;;3.80;72.00;;;;;;4996757;28;20239;-77
2021/12/12 03:06:57;;;;;;;9.23;4.22;;;3.70;71.90;;;;;;4995337;28;20236;-78
2021/12/12 03:09:26;;;;;;;11.07;6.80;;;3.80;72.00;;;;;;4996460;28;20196;-79
2021/12/12 03:11:59;;;;;;;9.73;6.65;;;3.80;72.00;;;;;;4996490;28;20409;-78
2021/12/12 03:14:32;;;;;;;8.60;5.13;;;3.70;71.90;;;;;;5001183;28;20201;-78
2021/12/12 03:17:00;;;;;;;6.85;4.32;;;3.70;71.90;;;;;;5010242;28;20228;-78
2021/12/12 03:19:28;;;;;;;6.55;4.20;;;3.70;71.90;;;;;;5007191;28;20216;-78
2021/12/12 03:21:55;;;;;;;7.65;4.85;;;3.70;71.90;;;;;;5006690;28;20216;-78
2021/12/12 03:24:25;;;;;;;8.43;5.18;;;3.60;71.80;;;;;;5008052;28;20247;-79
2021/12/12 03:26:57;;;;;;;13.90;6.00;;;3.60;71.80;;;;;;5010320;28;20264;-78
2021/12/12 03:29:24;;;;;;;10.60;6.60;;;3.60;71.80;;;;;;5012919;28;20193;-78
2021/12/12 03:32:00;;;;;;;8.80;4.80;;;3.50;71.70;;;;;;5008542;28;20254;-77
2021/12/12 03:34:31;;;;;;;8.55;3.38;;;3.40;71.60;;;;;;5008842;28;20263;-78
2021/12/12 03:36:59;;;;;;;7.30;3.70;;;3.30;71.90;;;;;;5002953;28;20330;-78
2021/12/12 03:39:30;;;;;;;8.30;3.90;;;3.30;72.80;;;;;;4997909;28;20239;-78
2021/12/12 03:42:04;;;;;;;4.57;3.55;;;3.30;73.10;;;;;;4997747;28;20229;-77
2021/12/12 03:44:34;;;;;;;8.90;4.35;;;3.20;73.30;;;;;;4996976;28;20216;-76
2021/12/12 03:47:04;;;;;;;4.65;3.10;;;3.10;73.80;;;;;;4996818;28;20248;-78
2021/12/12 03:49:32;;;;;;;5.25;2.83;;;3.10;74.00;;;;;;4997514;28;20267;-78
2021/12/12 03:52:00;;;;;;;5.55;2.80;;;3.10;74.20;;;;;;4997869;28;20207;-78
2021/12/12 03:54:27;;;;;;;5.50;3.92;;;3.10;74.50;;;;;;4999572;28;20219;-81
2021/12/12 03:56:54;;;;;;;8.00;4.20;;;3.00;74.80;;;;;;4998434;28;20234;-78
2021/12/12 03:59:22;;;;;;;6.70;3.65;;;3.00;74.90;;;;;;5003437;28;20311;-79
2021/12/12 04:01:51;;;;;;;3.97;3.22;;;3.00;75.10;;;;;;5004171;28;20264;-77
2021/12/12 04:04:22;;;;;;;7.10;3.20;;;2.90;75.40;;;;;;5002727;28;20203;-77
2021/12/12 04:06:50;;;;;;;5.50;4.00;;;2.80;75.50;;;;;;4995957;28;20225;-77
2021/12/12 04:09:18;;;;;;;6.13;3.67;;;2.70;76.50;;;;;;4996414;28;20239;-78
2021/12/12 04:11:48;;;;;;;6.10;4.03;;;2.60;77.10;;;;;;4996303;28;20215;-78
2021/12/12 04:14:17;;;;;;;9.07;3.72;;;2.60;78.30;;;;;;4996987;28;20212;-78
2021/12/12 04:16:49;;;;;;;5.32;3.22;;;2.60;79.40;;;;;;4996240;28;20867;-78
2021/12/12 04:19:16;;;;;;;5.28;3.60;;;2.50;79.30;;;;;;4995794;28;20347;-78
2021/12/12 04:21:43;;;;;;;6.95;3.20;;;2.50;79.30;;;;;;4995741;28;20684;-78
2021/12/12 04:24:11;;;;;;;9.50;3.78;;;2.50;79.30;;;;;;4995336;28;20240;-78
2021/12/12 04:26:42;;;;;;;5.70;3.45;;;2.50;80.50;;;;;;5005398;23;20726;-78
2021/12/12 04:29:12;;;;;;;8.73;4.28;;;2.50;81.40;;;;;;4975264;28;20197;-79
2021/12/12 04:31:42;;;;;;;14.27;4.57;;;2.50;81.80;;;;;;4957756;29;20228;-80
2021/12/12 04:34:11;;;;;;;7.53;3.80;;;2.50;81.20;;;;;;4959208;28;20253;-78
2021/12/12 04:36:41;;;;;;;6.72;3.92;;;2.40;81.70;;;;;;4951132;28;20234;-79
2021/12/12 04:39:14;;;;;;;12.13;4.25;;;2.40;83.20;;;;;;4957255;29;20316;-79
2021/12/12 04:41:43;;;;;;;7.28;4.20;;;2.40;83.40;;;;;;4958323;29;20216;-78
2021/12/12 04:44:11;;;;;;;6.10;4.53;;;2.40;83.90;;;;;;4939753;29;20262;-80
2021/12/12 04:52:13;;;;;;;7.22;4.50;;;2.40;85.10;;;;;;4928905;29;20210;-79
2021/12/12 04:54:46;;;;;;;7.57;3.70;;;2.30;84.90;;;;;;4939225;29;20253;-78
2021/12/12 04:57:19;;;;;;;5.35;3.92;;;2.30;85.30;;;;;;4939780;29;20223;-78
2021/12/12 04:59:49;;;;;;;7.97;4.70;;;2.30;86.00;;;;;;4940329;29;20230;-78
2021/12/12 05:02:22;;;;;;;5.07;3.40;;;2.30;86.30;;;;;;4940587;29;20225;-79
2021/12/12 05:04:57;;;;;;;8.55;4.85;;;2.30;86.50;;;;;;4959710;28;20384;-77
2021/12/12 05:07:32;;;;;;;10.88;5.15;;;2.20;86.30;;;;;;4956182;29;20233;-78
2021/12/12 05:10:05;;;;;;;8.38;4.57;;;2.10;87.10;;;;;;4939082;29;20197;-79
2021/12/12 05:12:34;;;;;;;8.30;4.38;;;2.10;87.30;;;;;;4958613;29;20197;-78
2021/12/12 05:15:05;;;;;;;10.45;4.13;;;2.00;87.70;;;;;;4959542;29;20236;-78
2021/12/12 05:17:40;;;;;;;4.53;4.13;;;2.00;88.90;;;;;;4943229;29;20298;-80
2021/12/12 05:20:14;;;;;;;6.47;4.35;;;1.90;89.60;;;;;;4953241;29;20225;-80
2021/12/12 05:22:47;;;;;;;5.20;3.70;;;1.90;89.80;;;;;;4958033;28;20257;-82
2021/12/12 05:25:18;;;;;;;5.82;4.07;;;1.90;90.40;;;;;;4977194;28;20198;-81
2021/12/12 05:27:47;;;;;;;9.52;4.47;;;1.90;90.40;;;;;;4977716;28;20288;-84
2021/12/12 05:30:18;;;;;;;8.82;4.80;;;1.90;90.70;;;;;;4977316;28;20197;-84
2021/12/12 05:32:47;;;;;;;6.95;4.28;;;1.80;90.60;;;;;;4976712;28;20202;-80
2021/12/12 05:35:19;;;;;;;6.80;4.15;;;1.80;91.10;;;;;;4975009;29;20209;-82
2021/12/12 05:37:48;;;;;;;5.32;4.75;;;1.80;91.60;;;;;;4964184;29;20234;-80
2021/12/12 05:40:15;;;;;;;6.80;4.20;;;1.80;91.80;;;;;;4953589;29;20230;-80
2021/12/12 05:42:44;;;;;;;5.53;4.10;;;1.90;92.20;;;;;;4975774;29;20209;-79
2021/12/12 05:45:11;;;;;;;4.88;3.88;;;1.90;92.30;;;;;;4976444;29;20225;-81
2021/12/12 05:47:39;;;;;;;8.10;4.35;;;1.90;92.20;;;;;;4971677;29;20260;-79
2021/12/12 05:50:09;;;;;;;4.47;3.92;;;1.90;92.30;;;;;;4975056;29;20190;-81
2021/12/12 05:52:38;;;;;;;7.15;3.83;;;1.90;92.40;;;;;;4972884;29;20208;-79
2021/12/12 05:55:10;;;;;;;4.57;3.40;;;2.10;92.40;;;;;;4966800;29;20221;-78
2021/12/12 05:57:39;;;;;;;5.95;3.97;;;2.20;91.90;;;;;;4941964;29;20309;-78
2021/12/12 06:00:10;;;;;;;7.03;4.03;;;2.20;91.60;;;;;;4937659;29;20241;-78
2021/12/12 06:02:38;;;;;;;8.88;4.32;;;2.30;91.50;;;;;;4951922;29;20206;-79
2021/12/12 06:05:05;;;;;;;6.47;4.15;;;2.30;91.40;;;;;;4960607;29;20252;-80
2021/12/12 06:07:33;;;;;;;8.55;4.28;;;2.40;90.60;;;;;;4952161;29;20245;-80
2021/12/12 06:10:04;;;;;;;4.25;3.85;;;2.40;90.70;;;;;;4964670;29;20265;-82
2021/12/12 06:12:33;;;;;;;7.70;4.15;;;2.30;89.60;;;;;;4970263;29;20194;-81
2021/12/12 06:15:02;;;;;;;7.90;3.95;;;2.30;88.80;;;;;;4968567;29;20272;-80
2021/12/12 06:17:30;;;;;;;9.57;4.32;;;2.20;88.50;;;;;;4951060;29;20246;-80
2021/12/12 06:19:58;;;;;;;9.60;4.13;;;2.30;89.00;;;;;;4951131;29;20257;-78
2021/12/12 06:22:25;;;;;;;6.18;3.60;;;2.20;88.10;;;;;;4962807;29;20396;-79
2021/12/12 06:24:53;;;;;;;5.90;4.15;;;2.20;88.60;;;;;;4970381;29;20268;-82
2021/12/12 06:27:22;;;;;;;8.32;4.30;;;2.20;88.80;;;;;;4968317;29;20233;-81
2021/12/12 06:29:53;;;;;;;9.15;3.60;;;2.30;88.70;;;;;;4969390;29;20221;-78
2021/12/12 06:32:20;;;;;;;6.28;3.75;;;2.20;88.40;;;;;;4967942;29;20244;-80
2021/12/12 06:34:48;;;;;;;6.38;3.50;;;2.20;89.20;;;;;;4968111;29;20198;-80
2021/12/12 06:37:16;;;;;;;8.18;4.28;;;2.30;88.80;;;;;;4953268;29;20240;-81
2021/12/12 06:39:44;;;;;;;5.85;4.15;;;2.20;88.50;;;;;;4945735;29;20239;-82
2021/12/12 06:42:13;;;;;;;7.65;4.03;;;2.20;88.70;;;;;;4946620;29;20207;-80
2021/12/12 06:44:42;;;;;;;11.38;3.53;;;2.20;88.70;;;;;;4948224;29;20263;-81
2021/12/12 06:47:10;;;;;;;6.65;3.88;;;2.30;89.00;;;;;;4958799;29;20226;-80
2021/12/12 06:49:38;;;;;;;6.07;3.70;;;2.30;88.50;;;;;;4970960;29;20210;-80
2021/12/12 06:52:08;;;;;;;10.32;3.25;;;2.30;88.60;;;;;;4960880;29;20294;-80
2021/12/12 06:54:36;;;;;;;6.38;3.50;;;2.40;88.80;;;;;;4951166;29;20722;-82
2021/12/12 06:57:07;;;;;;;7.75;3.17;;;2.40;88.20;;;;;;4946124;29;20218;-79
2021/12/12 06:59:36;;;;;;;6.18;3.67;;;2.50;88.00;;;;;;4951337;29;20221;-80
2021/12/12 07:02:07;;;;;;;5.18;3.75;;;2.60;87.20;;;;;;4961591;29;20278;-78
2021/12/12 07:04:36;;;;;;;5.10;3.65;;;2.60;87.00;;;;;;4967075;29;20274;-80
2021/12/12 07:07:05;;;;;;;5.47;3.30;;;2.70;86.10;;;;;;4952308;29;20240;-80
2021/12/12 07:09:35;;;;;;;4.82;3.33;;;2.80;84.60;;;;;;4956121;29;20253;-80
2021/12/12 07:12:06;;;;;;;5.00;3.60;;;2.80;83.70;;;;;;4972240;29;20216;-81
2021/12/12 07:14:35;;;;;;;9.05;3.13;;;2.80;83.10;;;;;;4971281;29;20202;-81
2021/12/12 07:17:02;;;;;;;6.28;3.70;;;2.80;82.00;;;;;;4971592;29;20343;-80
2021/12/12 07:19:30;;;;;;;10.48;4.90;;;2.70;81.10;;;;;;4969542;29;20296;-80
2021/12/12 07:21:59;;;;;;;3.80;3.20;;;2.70;80.10;;;;;;4955777;28;20254;-78
2021/12/12 07:24:28;;;;;;;6.90;4.18;;;2.70;79.60;;;;;;4950552;29;20232;-82
2021/12/12 07:26:55;;;;;;;5.97;3.75;;;2.70;79.60;;;;;;4942955;29;20453;-81
2021/12/12 07:29:22;;;;;;;5.05;3.30;;;2.70;79.90;;;;;;4947400;29;20206;-79
2021/12/12 07:31:49;;;;;;;4.68;3.97;;;2.80;80.30;;;;;;4953740;29;20578;-80
2021/12/12 07:34:18;;;;;;;4.05;3.45;;;2.90;81.10;;;;;;4943835;29;20666;-80
2021/12/12 07:36:50;;;;;;;6.97;3.50;;;3.00;81.00;;;;;;4943314;29;20643;-82
2021/12/12 07:39:18;;;;;;;5.32;3.85;;;3.10;80.50;;;;;;4963190;29;20214;-80
2021/12/12 07:41:48;;;;;;;5.35;3.83;;;3.10;79.80;;;;;;4975141;28;20228;-77
2021/12/12 07:44:21;;;;;;;3.78;3.28;;;3.20;79.10;;;;;;4962105;28;20187;-78
2021/12/12 07:46:51;;;;;;;6.32;3.50;;;3.20;77.60;;;;;;4959427;28;20230;-78
2021/12/12 07:49:20;;;;;;;4.60;3.60;;;3.30;77.90;;;;;;4959522;28;20191;-77
2021/12/12 07:51:49;;;;;;;5.88;3.78;;;3.40;76.20;;;;;;4965299;28;20204;-79
2021/12/12 07:54:17;;;;;;;6.88;3.60;;;3.40;75.40;;;;;;4972229;28;20206;-82
2021/12/12 07:56:46;;;;;;;7.15;3.45;;;3.50;75.10;;;;;;4957567;29;20222;-80
2021/12/12 07:59:15;;;;;;;4.25;3.28;;;3.50;74.40;;;;;;4943435;29;20309;-80
2021/12/12 08:01:46;;;;;;;3.78;3.28;;;3.50;74.20;;;;;;4955380;29;20679;-78
2021/12/12 08:04:15;;;;;;;4.00;3.58;;;3.60;73.30;;;;;;4959647;29;20210;-79
2021/12/12 08:06:43;;;;;;;4.63;3.47;;;3.60;73.20;;;;;;4968780;29;20317;-80
2021/12/12 08:09:12;;;;;;;3.78;3.38;;;3.70;73.00;;;;;;4959051;29;20591;-78
2021/12/12 08:11:42;;;;;;;4.85;2.88;;;3.70;71.90;;;;;;4949424;29;20373;-79
2021/12/12 08:14:11;;;;;;;4.30;3.33;;;3.70;71.90;;;;;;4939556;29;20214;-80
2021/12/12 08:16:39;;;;;;;3.30;2.70;;;3.80;72.00;;;;;;4940799;29;20512;-78
2021/12/12 08:19:07;;;;;;;5.32;2.35;;;3.90;72.00;;;;;;4944675;29;20274;-78
2021/12/12 08:21:35;;;;;;;3.65;2.88;;;4.00;70.60;;;;;;4944460;29;20257;-78
2021/12/12 08:24:07;;;;;;;5.57;3.08;;;4.00;69.80;;;;;;4953006;29;20215;-80
2021/12/12 08:26:38;;;;;;;3.00;2.70;;;4.10;69.60;;;;;;4954691;28;20230;-78
2021/12/12 08:29:06;;;;;;;4.55;2.35;;;4.20;69.30;;;;;;4967034;29;20289;-80
2021/12/12 08:31:33;;;;;;;3.63;2.15;;;4.20;69.10;;;;;;4973643;29;20260;-80
2021/12/12 08:34:01;;;;;;;6.15;2.97;;;4.20;69.00;;;;;;4969546;29;20205;-78
2021/12/12 08:36:30;;;;;;;6.97;2.90;;;4.20;68.60;;;;;;4960342;28;20238;-78
2021/12/12 08:38:57;;;;;;;6.55;2.75;;;4.30;68.10;;;;;;4962422;28;20237;-79
2021/12/12 08:41:24;;;;;;;3.25;2.28;;;4.40;68.90;;;;;;4949564;28;20241;-78
2021/12/12 08:43:53;;;;;;;6.13;2.35;;;4.40;67.70;;;;;;4957685;29;20273;-78
2021/12/12 08:46:23;;;;;;;3.65;2.60;;;4.40;67.00;;;;;;4958043;29;20229;-77
2021/12/12 08:48:52;;;;;;;3.72;2.58;;;4.50;66.70;;;;;;4960545;29;20305;-80
2021/12/12 08:51:25;;;;;;;2.70;2.33;;;4.50;65.60;;;;;;4944130;29;20234;-81
2021/12/12 08:53:55;;;;;;;6.72;3.88;;;4.50;65.80;;;;;;4948692;29;20218;-79
2021/12/12 08:56:41;;;;;;;3.20;2.83;;;4.60;65.50;;;;;;4958304;28;20765;-79
2021/12/12 08:59:10;;;;;;;4.80;2.60;;;4.70;65.10;;;;;;4959180;28;20305;-79
2021/12/12 09:01:39;;;;;;;4.68;2.80;;;4.70;64.90;;;;;;4965871;28;20241;-79
2021/12/12 09:04:07;;;;;;;5.82;2.53;;;4.80;64.10;;;;;;4968038;28;20214;-81
2021/12/12 09:06:37;;;;;;;7.97;3.05;;;4.90;64.20;;;;;;4950534;29;20254;-80
2021/12/12 09:09:08;;;;;;;6.80;3.00;;;5.00;64.30;;;;;;4957911;29;20210;-80
2021/12/12 09:11:44;;;;;;;5.55;2.80;;;5.00;63.80;;;;;;4948729;29;20627;-80
2021/12/12 09:14:17;;;;;;;3.05;2.50;;;5.00;63.80;;;;;;4964232;29;20221;-79
2021/12/12 09:16:47;;;;;;;4.40;2.60;;;5.10;62.40;;;;;;4965896;28;20258;-81
2021/12/12 09:19:17;;;;;;;4.60;2.55;;;5.20;62.60;;;;;;4968654;28;20220;-79
2021/12/12 09:21:51;;;;;;;4.53;3.38;;;5.30;62.20;;;;;;4966082;28;20249;-79
2021/12/12 09:24:43;;;;;;;3.95;2.85;;;5.30;61.40;;;;;;4970912;28;20220;-78
2021/12/12 09:27:13;;;;;;;3.67;2.42;;;5.40;61.80;;;;;;4971717;29;20237;-80
2021/12/12 09:29:52;;;;;;;4.93;2.60;;;5.50;61.90;;;;;;4959652;28;20212;-81
2021/12/12 09:32:29;;;;;;;7.80;3.78;;;5.50;61.10;;;;;;4974370;29;20210;-78
2021/12/12 09:35:05;;;;;;;2.50;2.30;;;5.50;60.70;;;;;;4975371;28;20265;-79
2021/12/12 09:37:39;;;;;;;3.10;2.80;;;5.50;60.90;;;;;;4974108;28;20225;-78
2021/12/12 09:40:16;;;;;;;5.28;3.60;;;5.60;60.90;;;;;;4972096;28;20240;-80
2021/12/12 09:42:59;;;;;;;10.48;2.50;;;5.60;60.40;;;;;;4967077;28;20588;-80
2021/12/12 09:46:18;;;;;;;5.85;2.75;;;5.70;60.50;;;;;;4971860;28;20213;-80
2021/12/12 09:52:41;;;;;;;4.10;2.60;;;5.90;60.20;;;;;;4964983;28;20264;-76
2021/12/12 09:55:11;;;;;;;5.95;2.70;;;5.80;59.40;;;;;;4955389;29;20197;-79
2021/12/12 09:57:44;;;;;;;7.65;3.20;;;5.90;59.00;;;;;;4956507;28;20234;-79
2021/12/12 10:00:17;;;;;;;4.53;2.42;;;6.00;59.10;;;;;;4974968;28;20214;-77
2021/12/12 10:03:11;;;;;;;8.20;3.10;;;6.00;59.40;;;;;;4977191;28;20241;-84
2021/12/12 10:05:55;;;;;;;4.72;2.90;;;6.20;58.80;;;;;;4977531;28;20245;-79
2021/12/12 10:08:37;;;;;;;3.92;2.60;;;6.30;58.50;;;;;;4976552;28;20194;-80
2021/12/12 10:11:09;;;;;;;3.45;2.65;;;6.50;58.20;;;;;;4975783;28;20258;-79
2021/12/12 10:13:41;;;;;;;4.82;2.75;;;6.60;57.20;;;;;;4963970;28;20214;-81
2021/12/12 10:16:18;;;;;;;4.18;2.60;;;6.50;56.60;;;;;;4954932;29;20198;-81
2021/12/12 10:19:00;;;;;;;2.97;2.53;;;6.50;56.60;;;;;;4967020;29;20214;-80
2021/12/12 10:21:45;;;;;;;2.70;2.00;;;6.50;56.60;;;;;;4955511;29;20222;-78
2021/12/12 10:24:26;;;;;;;4.05;2.50;;;6.60;56.40;;;;;;4954337;29;20221;-80
2021/12/12 10:27:01;;;;;;;2.55;2.03;;;6.70;55.50;;;;;;4976831;23;20236;-78
2021/12/12 10:29:32;;;;;;;3.78;2.08;;;6.70;56.10;;;;;;4958192;29;20244;-78
2021/12/12 10:32:04;;;;;;;3.70;2.10;;;6.80;55.00;;;;;;4956442;29;20207;-78
2021/12/12 10:34:36;;;;;;;4.68;2.00;;;6.60;54.10;;;;;;4941746;29;20246;-78
2021/12/12 10:37:11;;;;;;;2.88;2.00;;;6.60;54.90;;;;;;4943391;29;20234;-78
2021/12/12 10:39:40;;;;;;;3.10;2.60;;;6.60;55.00;;;;;;4957814;29;20207;-78
2021/12/12 10:42:13;;;;;;;3.53;2.20;;;6.70;54.50;;;;;;4947982;29;20232;-78
2021/12/12 10:44:45;;;;;;;5.25;2.63;;;6.70;54.40;;;;;;4952516;29;20218;-79
2021/12/12 10:47:15;;;;;;;4.90;2.38;;;6.60;53.80;;;;;;4956627;29;20226;-77
2021/12/12 10:49:52;;;;;;;6.25;2.28;;;6.60;54.30;;;;;;4943808;29;20658;-78
2021/12/12 10:52:34;;;;;;;3.85;2.63;;;6.50;54.30;;;;;;4949490;29;20556;-78
2021/12/12 10:55:07;;;;;;;4.00;1.95;;;6.50;54.00;;;;;;4952787;29;20218;-78
2021/12/12 10:57:37;;;;;;;3.40;2.00;;;6.50;53.80;;;;;;4953962;29;20226;-78
2021/12/12 11:00:09;;;;;;;5.60;2.10;;;6.30;54.00;;;;;;4947609;29;20220;-79
2021/12/12 11:02:42;;;;;;;2.95;2.33;;;6.30;54.10;;;;;;4941661;29;20699;-79
2021/12/12 11:05:13;;;;;;;2.60;1.92;;;6.40;54.40;;;;;;4955180;29;20250;-79
2021/12/12 11:07:47;;;;;;;4.70;2.58;;;6.50;54.30;;;;;;4956959;29;20297;-78
2021/12/12 11:10:18;;;;;;;2.50;2.10;;;6.60;54.20;;;;;;4941301;29;20644;-78
2021/12/12 11:12:51;;;;;;;4.53;2.10;;;6.60;54.00;;;;;;4941221;28;20229;-78
2021/12/12 11:15:25;;;;;;;5.78;2.30;;;6.70;54.10;;;;;;4941698;29;20847;-81
2021/12/12 11:18:02;;;;;;;2.42;2.22;;;6.80;53.40;;;;;;4942237;29;20249;-80
2021/12/12 11:20:34;;;;;;;5.45;2.35;;;6.70;53.30;;;;;;4941783;29;20269;-79
2021/12/12 11:23:06;;;;;;;3.65;2.20;;;6.70;54.00;;;;;;4942762;29;20221;-80
2021/12/12 11:25:38;;;;;;;3.40;1.85;;;6.80;53.90;;;;;;4943560;29;20234;-80
2021/12/12 11:28:10;;;;;;;4.40;2.63;;;6.90;53.00;;;;;;4941750;29;20343;-80
2021/12/12 11:30:42;;;;;;;4.65;2.13;;;6.70;53.10;;;;;;4942812;29;20579;-78
2021/12/12 11:33:12;;;;;;;4.70;2.30;;;6.60;53.20;;;;;;4948839;29;20217;-79
2021/12/12 11:35:42;;;;;;;4.07;2.45;;;6.70;53.40;;;;;;4944935;29;20294;-79
2021/12/12 11:38:18;;;;;;;2.33;1.95;;;6.80;53.10;;;;;;4945756;29;20297;-80
2021/12/12 11:40:50;;;;;;;6.13;3.30;;;6.90;52.70;;;;;;4950838;29;20190;-80
2021/12/12 11:46:32;;;;;;;2.75;2.28;;;7.00;52.40;;;;;;4930636;29;20219;-78
2021/12/12 11:49:18;;;;;;;3.97;2.28;;;7.00;52.00;;;;;;4926721;29;20199;-80
2021/12/12 11:52:02;;;;;;;2.35;2.05;;;7.00;51.90;;;;;;4944679;29;20262;-80
2021/12/12 11:55:19;;;;;;;5.45;1.90;;;7.00;51.90;;;;;;4946777;29;20206;-80
2021/12/12 11:58:20;;;;;;;5.35;3.10;;;7.10;52.10;;;;;;4945695;29;20326;-80
2021/12/12 12:00:53;;;;;;;3.95;2.25;;;7.10;51.40;;;;;;4947624;29;20273;-80
2021/12/12 12:03:29;;;;;;;3.45;2.35;;;7.20;52.00;;;;;;4948397;29;20233;-80
2021/12/12 12:06:13;;;;;;;5.68;2.70;;;7.30;51.60;;;;;;4948471;29;20579;-81
2021/12/12 12:08:57;;;;;;;3.97;2.10;;;7.30;50.80;;;;;;4954721;29;20226;-78
2021/12/12 12:11:39;;;;;;;7.18;2.58;;;7.30;50.70;;;;;;4956835;29;20225;-80
2021/12/12 12:14:12;;;;;;;4.68;2.78;;;7.20;50.50;;;;;;4957335;29;20211;-79
2021/12/12 12:16:51;;;;;;;7.22;2.72;;;7.30;50.60;;;;;;4956847;29;20239;-78
2021/12/12 12:19:33;;;;;;;2.40;2.10;;;7.10;50.90;;;;;;4955610;29;20220;-80
2021/12/12 12:22:14;;;;;;;4.63;2.75;;;7.10;50.60;;;;;;4952419;29;20298;-81
2021/12/12 12:24:57;;;;;;;3.50;2.50;;;7.10;50.50;;;;;;4958530;29;20210;-79
2021/12/12 12:27:31;;;;;;;2.80;2.10;;;7.30;50.50;;;;;;4957451;29;20247;-79
2021/12/12 12:30:40;;;;;;;3.40;2.08;;;7.30;50.20;;;;;;4954420;29;20286;-78
2021/12/12 12:33:40;;;;;;;4.70;2.30;;;7.20;49.40;;;;;;4954304;29;20290;-78
2021/12/12 12:36:47;;;;;;;2.72;2.10;;;7.10;50.10;;;;;;4955175;29;20282;-78
2021/12/12 12:39:51;;;;;;;4.38;2.40;;;7.10;49.80;;;;;;4954149;29;20224;-81
2021/12/12 12:42:51;;;;;;;2.20;2.00;;;7.10;50.30;;;;;;4957943;29;20294;-79
2021/12/12 12:45:48;;;;;;;3.33;2.20;;;7.10;50.50;;;;;;4941657;29;20217;-79
2021/12/12 12:49:17;;;;;;;5.80;2.45;;;7.10;50.00;;;;;;4942703;29;20230;-79
2021/12/12 12:52:13;;;;;;;2.00;1.90;;;7.30;49.60;;;;;;4944069;29;20275;-80
2021/12/12 12:54:46;;;;;;;2.50;2.30;;;7.30;48.90;;;;;;4927828;29;20677;-80
2021/12/12 12:57:29;;;;;;;7.28;2.10;;;7.30;49.20;;;;;;4945194;29;20368;-79
2021/12/12 13:00:10;;;;;;;2.25;1.85;;;7.40;49.60;;;;;;4947758;29;20220;-80
2021/12/12 13:03:12;;;;;;;2.83;2.30;;;7.50;48.70;;;;;;4943767;29;20265;-81
2021/12/12 13:06:24;;;;;;;2.45;2.20;;;7.50;48.30;;;;;;4931374;29;20624;-81
2021/12/12 13:09:15;;;;;;;6.47;4.25;;;7.50;48.80;;;;;;4942703;29;20217;-80
2021/12/12 13:11:59;;;;;;;2.47;2.10;;;7.50;48.10;;;;;;4951043;29;20206;-81
2021/12/12 13:14:40;;;;;;;2.28;2.08;;;7.60;48.40;;;;;;4946878;29;20277;-81
2021/12/12 13:17:13;;;;;;;2.78;2.28;;;7.60;48.10;;;;;;4948441;29;20715;-80
2021/12/12 13:19:59;;;;;;;2.80;1.60;;;7.60;48.10;;;;;;4945844;29;20213;-80
2021/12/12 13:22:33;;;;;;;2.25;2.05;;;7.60;48.10;;;;;;4946566;29;20230;-80
2021/12/12 13:25:09;;;;;;;3.85;2.25;;;7.70;48.20;;;;;;4947107;29;20289;-80
2021/12/12 13:28:01;;;;;;;1.90;1.80;;;7.50;48.10;;;;;;4945673;29;20242;-80
2021/12/12 13:30:41;;;;;;;2.38;2.05;;;7.50;48.10;;;;;;4940728;29;20655;-79
2021/12/12 13:33:22;;;;;;;3.83;1.80;;;7.40;48.00;;;;;;4941007;29;20210;-81
2021/12/12 13:36:08;;;;;;;2.58;1.58;;;7.20;47.80;;;;;;4940063;29;20224;-80
2021/12/12 13:38:49;;;;;;;2.80;2.20;;;7.20;47.80;;;;;;4941669;29;20201;-79
2021/12/12 13:41:23;;;;;;;2.85;2.28;;;7.10;47.70;;;;;;4940861;29;20246;-79
2021/12/12 13:43:59;;;;;;;4.55;1.85;;;7.10;48.40;;;;;;4941487;29;20228;-82
2021/12/12 13:46:35;;;;;;;2.53;2.00;;;7.10;48.20;;;;;;4941740;29;20211;-82
2021/12/12 13:49:09;;;;;;;2.17;1.80;;;7.00;48.40;;;;;;4943099;29;20265;-80
2021/12/12 13:51:45;;;;;;;2.13;1.92;;;7.00;48.60;;;;;;4946690;29;20240;-80